createdAt,value
2017-09-20T00:02:24.710Z,4.00
2017-09-20T00:04:52.161Z,3.93
2017-09-20T00:07:19.627Z,3.90
2017-09-20T00:09:47.081Z,4.00
2017-09-20T00:12:14.535Z,4.30
2017-09-20T00:14:41.991Z,4.40
2017-09-20T00:17:09.442Z,4.70
2017-09-20T00:19:36.879Z,5.30
2017-09-20T00:22:04.332Z,4.00
2017-09-20T00:24:31.780Z,4.70
2017-09-20T00:27:00.015Z,4.23
2017-09-20T00:29:27.471Z,4.20
2017-09-20T00:31:54.915Z,5.20
2017-09-20T00:34:22.360Z,5.07
2017-09-20T00:36:49.808Z,5.20
2017-09-20T00:39:17.252Z,4.70
2017-09-20T00:41:45.177Z,4.63
2017-09-20T00:44:12.624Z,4.60
2017-09-20T00:46:40.072Z,4.37
2017-09-20T00:49:07.518Z,4.20
2017-09-20T00:51:34.960Z,4.80
2017-09-20T00:54:02.416Z,4.50
2017-09-20T00:56:29.875Z,5.40
2017-09-20T00:58:57.330Z,4.47
2017-09-20T01:01:24.785Z,4.87
2017-09-20T01:03:52.227Z,4.33
2017-09-20T01:06:19.671Z,3.70
2017-09-20T01:08:47.882Z,4.60
2017-09-20T01:11:15.329Z,4.30
2017-09-20T01:13:42.785Z,5.00
2017-09-20T01:16:10.228Z,4.43
2017-09-20T01:18:37.683Z,4.57
2017-09-20T01:21:16.812Z,4.37
2017-09-20T01:23:44.260Z,4.90
2017-09-20T01:26:11.699Z,5.00
2017-09-20T01:28:39.143Z,4.10
2017-09-20T01:31:06.584Z,4.30
2017-09-20T01:33:34.043Z,4.23
2017-09-20T01:36:01.487Z,4.47
2017-09-20T01:38:28.931Z,4.50
2017-09-20T01:40:56.400Z,4.10
2017-09-20T01:43:23.856Z,4.70
2017-09-20T01:45:51.324Z,4.63
2017-09-20T01:48:18.763Z,5.37
2017-09-20T01:50:46.212Z,5.30
2017-09-20T01:53:13.660Z,6.00
2017-09-20T01:55:41.115Z,5.23
2017-09-20T01:58:08.551Z,6.13
2017-09-20T02:00:36.001Z,5.77
2017-09-20T02:03:03.451Z,6.10
2017-09-20T02:05:31.668Z,5.10
2017-09-20T02:07:59.120Z,6.00
2017-09-20T02:10:26.574Z,6.27
2017-09-20T02:12:54.025Z,5.53
2017-09-20T02:15:21.477Z,6.40
2017-09-20T02:17:48.920Z,6.30
2017-09-20T02:20:16.388Z,7.90
2017-09-20T02:22:43.825Z,5.57
2017-09-20T02:25:11.267Z,5.07
2017-09-20T02:27:38.719Z,5.60
2017-09-20T02:30:06.175Z,5.30
2017-09-20T02:32:34.395Z,5.30
2017-09-20T02:35:01.842Z,5.70
2017-09-20T02:37:29.299Z,5.17
2017-09-20T02:39:56.755Z,4.87
2017-09-20T02:42:25.029Z,4.90
2017-09-20T02:44:52.479Z,4.67
2017-09-20T02:47:19.920Z,5.07
2017-09-20T02:49:47.364Z,4.10
2017-09-20T02:52:15.595Z,4.20
2017-09-20T02:54:43.048Z,4.87
2017-09-20T02:57:10.540Z,4.10
2017-09-20T02:59:37.968Z,4.47
2017-09-20T03:02:05.412Z,4.60
2017-09-20T03:04:32.851Z,4.67
2017-09-20T03:07:00.335Z,4.70
2017-09-20T03:09:27.787Z,4.50
2017-09-20T03:11:55.231Z,4.70
2017-09-20T03:14:22.679Z,5.13
2017-09-20T03:16:50.119Z,4.50
2017-09-20T03:19:17.565Z,4.83
2017-09-20T03:21:45.007Z,3.93
2017-09-20T03:24:12.455Z,4.00
2017-09-20T03:26:39.895Z,4.40
2017-09-20T03:29:07.342Z,4.27
2017-09-20T03:31:34.798Z,4.60
2017-09-20T03:34:02.239Z,4.43
2017-09-20T03:36:29.681Z,4.77
2017-09-20T03:38:57.130Z,4.57
2017-09-20T03:41:24.563Z,4.00
2017-09-20T03:43:52.018Z,4.23
2017-09-20T03:46:20.224Z,4.67
2017-09-20T03:48:47.692Z,4.70
2017-09-20T03:51:15.139Z,4.50
2017-09-20T03:53:42.589Z,4.27
2017-09-20T03:56:10.027Z,3.83
2017-09-20T03:58:37.470Z,4.70
2017-09-20T04:01:04.932Z,4.77
2017-09-20T04:03:32.384Z,4.57
2017-09-20T04:06:00.600Z,4.23
2017-09-20T04:08:28.048Z,4.30
2017-09-20T04:10:55.508Z,4.20
2017-09-20T04:13:22.956Z,4.57
2017-09-20T04:15:50.415Z,4.33
2017-09-20T04:18:17.855Z,5.23
2017-09-20T04:20:45.318Z,5.37
2017-09-20T04:23:12.760Z,4.93
2017-09-20T04:25:40.203Z,5.10
2017-09-20T04:28:07.655Z,5.23
2017-09-20T04:30:35.103Z,5.53
2017-09-20T04:33:03.530Z,5.57
2017-09-20T04:35:31.004Z,5.33
2017-09-20T04:37:58.456Z,5.43
2017-09-20T04:40:26.074Z,5.90
2017-09-20T04:42:54.395Z,4.80
2017-09-20T04:45:22.186Z,6.90
2017-09-20T04:47:49.698Z,5.23
2017-09-20T04:50:17.151Z,5.27
2017-09-20T04:52:44.598Z,4.60
2017-09-20T04:55:13.215Z,4.50
2017-09-20T04:57:41.106Z,4.83
2017-09-20T05:00:08.956Z,5.00
2017-09-20T05:02:37.521Z,4.23
2017-09-20T05:05:04.980Z,4.87
2017-09-20T05:07:32.627Z,5.30
2017-09-20T05:10:00.523Z,5.10
2017-09-20T05:12:28.998Z,6.47
2017-09-20T05:14:57.247Z,6.20
2017-09-20T05:17:24.724Z,6.63
2017-09-20T05:19:52.171Z,5.93
2017-09-20T05:22:19.616Z,5.73
2017-09-20T05:24:47.075Z,6.40
2017-09-20T05:27:14.527Z,6.87
2017-09-20T05:29:42.739Z,6.70
2017-09-20T05:32:10.191Z,9.30
2017-09-20T05:34:37.656Z,9.70
2017-09-20T05:37:05.100Z,9.60
2017-09-20T05:39:32.564Z,10.90
2017-09-20T05:42:00.008Z,9.70
2017-09-20T05:44:27.465Z,9.83
2017-09-20T05:46:54.923Z,10.20
2017-09-20T05:49:22.371Z,10.80
2017-09-20T05:51:49.824Z,11.13
2017-09-20T05:54:17.281Z,10.80
2017-09-20T05:56:44.755Z,11.57
2017-09-20T05:59:12.199Z,10.73
2017-09-20T06:01:41.662Z,11.40
2017-09-20T06:04:09.108Z,11.43
2017-09-20T06:06:37.325Z,11.50
2017-09-20T06:09:04.776Z,11.13
2017-09-20T06:11:32.236Z,10.57
2017-09-20T06:13:59.686Z,12.80
2017-09-20T06:16:27.143Z,12.80
2017-09-20T06:18:54.595Z,12.30
2017-09-20T06:21:22.053Z,14.87
2017-09-20T06:23:49.504Z,13.97
2017-09-20T06:26:17.011Z,12.80
2017-09-20T06:28:44.499Z,12.47
2017-09-20T06:31:11.946Z,11.20
2017-09-20T06:33:39.390Z,12.83
2017-09-20T06:36:07.615Z,11.90
2017-09-20T06:38:35.063Z,11.30
2017-09-20T06:41:02.515Z,12.57
2017-09-20T06:43:29.976Z,13.17
2017-09-20T06:45:57.430Z,13.07
2017-09-20T06:48:24.896Z,11.90
2017-09-20T06:50:52.350Z,13.00
2017-09-20T06:53:19.800Z,12.47
2017-09-20T06:55:47.257Z,14.90
2017-09-20T06:58:14.707Z,15.20
2017-09-20T07:00:42.163Z,13.70
2017-09-20T07:03:09.619Z,13.47
2017-09-20T07:05:37.079Z,13.30
2017-09-20T07:08:04.540Z,13.77
2017-09-20T07:10:31.988Z,13.00
2017-09-20T07:12:59.500Z,12.30
2017-09-20T07:15:27.724Z,14.17
2017-09-20T07:17:55.184Z,13.90
2017-09-20T07:20:22.631Z,12.60
2017-09-20T07:22:50.100Z,12.17
2017-09-20T07:25:17.558Z,11.70
2017-09-20T07:27:45.016Z,13.77
2017-09-20T07:30:12.472Z,13.77
2017-09-20T07:32:39.950Z,14.17
2017-09-20T07:35:07.390Z,15.87
2017-09-20T07:37:34.855Z,13.67
2017-09-20T07:40:02.315Z,13.67
2017-09-20T07:42:29.760Z,12.97
2017-09-20T07:44:57.215Z,12.83
2017-09-20T07:47:24.667Z,13.03
2017-09-20T07:49:52.131Z,12.70
2017-09-20T07:52:19.612Z,14.13
2017-09-20T07:54:47.060Z,15.10
2017-09-20T07:57:14.503Z,14.50
2017-09-20T07:59:41.964Z,13.40
2017-09-20T08:02:09.427Z,14.20
2017-09-20T08:04:36.884Z,13.33
2017-09-20T08:07:04.335Z,16.37
2017-09-20T08:09:31.795Z,15.87
2017-09-20T08:11:59.251Z,15.90
2017-09-20T08:14:26.707Z,16.23
2017-09-20T08:16:54.156Z,14.57
2017-09-20T08:19:21.648Z,14.60
2017-09-20T08:21:49.075Z,16.60
2017-09-20T08:24:16.523Z,16.07
2017-09-20T08:26:43.980Z,14.87
2017-09-20T08:29:11.436Z,15.20
2017-09-20T08:31:38.891Z,13.50
2017-09-20T08:34:06.355Z,14.70
2017-09-20T08:36:33.812Z,14.47
2017-09-20T08:39:01.266Z,14.83
2017-09-20T08:41:28.724Z,14.10
2017-09-20T08:43:56.423Z,14.40
2017-09-20T08:46:23.884Z,14.37
2017-09-20T08:48:51.334Z,16.20
2017-09-20T08:51:19.547Z,15.20
2017-09-20T08:53:47.002Z,14.80
2017-09-20T08:56:14.468Z,14.37
2017-09-20T08:58:41.920Z,14.33
2017-09-20T09:01:09.380Z,13.97
2017-09-20T09:03:36.836Z,14.40
2017-09-20T09:06:04.282Z,15.40
2017-09-20T09:08:31.742Z,15.37
2017-09-20T09:10:59.196Z,15.67
2017-09-20T09:13:26.644Z,14.60
2017-09-20T09:15:54.108Z,15.27
2017-09-20T09:18:21.556Z,14.90
2017-09-20T09:20:49.013Z,15.47
2017-09-20T09:23:16.516Z,14.70
2017-09-20T09:25:43.988Z,14.90
2017-09-20T09:28:12.207Z,14.67
2017-09-20T09:30:39.659Z,14.10
2017-09-20T09:33:07.116Z,16.67
2017-09-20T09:35:34.617Z,15.67
2017-09-20T09:38:02.070Z,16.87
2017-09-20T09:40:29.531Z,16.93
2017-09-20T09:42:56.982Z,16.20
2017-09-20T09:45:24.426Z,18.27
2017-09-20T09:47:51.883Z,18.10
2017-09-20T09:50:19.326Z,15.63
2017-09-20T09:52:46.783Z,16.70
2017-09-20T09:55:14.245Z,15.30
2017-09-20T09:57:41.695Z,15.23
2017-09-20T10:00:09.142Z,13.90
2017-09-20T10:02:36.599Z,14.20
2017-09-20T10:05:04.068Z,12.63
2017-09-20T10:07:31.540Z,12.07
2017-09-20T10:09:58.991Z,11.30
2017-09-20T10:12:26.448Z,10.97
2017-09-20T10:14:53.908Z,10.73
2017-09-20T10:17:21.359Z,11.37
2017-09-20T10:19:48.811Z,11.77
2017-09-20T10:22:16.267Z,11.90
2017-09-20T10:24:43.723Z,12.27
2017-09-20T10:27:11.184Z,11.80
2017-09-20T10:29:38.639Z,10.70
2017-09-20T10:32:06.093Z,10.50
2017-09-20T10:34:33.559Z,11.60
2017-09-20T10:37:01.007Z,12.10
2017-09-20T10:39:28.467Z,11.27
2017-09-20T10:41:55.923Z,10.63
2017-09-20T10:44:23.389Z,11.60
2017-09-20T10:46:50.848Z,11.33
2017-09-20T10:49:18.310Z,11.20
2017-09-20T10:51:46.541Z,11.73
2017-09-20T10:54:14.000Z,10.20
2017-09-20T10:56:41.451Z,11.27
2017-09-20T10:59:08.906Z,12.30
2017-09-20T11:01:36.376Z,10.20
2017-09-20T11:04:03.835Z,11.70
2017-09-20T11:06:31.300Z,11.50
2017-09-20T11:08:58.760Z,10.37
2017-09-20T11:11:26.215Z,10.47
2017-09-20T11:13:53.671Z,9.00
2017-09-20T11:16:21.122Z,11.90
2017-09-20T11:18:48.577Z,9.70
2017-09-20T11:21:16.203Z,11.07
2017-09-20T11:23:43.661Z,9.70
2017-09-20T11:26:11.174Z,9.50
2017-09-20T11:28:38.625Z,9.70
2017-09-20T11:31:06.088Z,8.97
2017-09-20T11:33:34.359Z,8.50
2017-09-20T11:36:01.807Z,8.30
2017-09-20T11:38:29.278Z,9.93
2017-09-20T11:40:57.505Z,8.90
2017-09-20T11:43:24.998Z,8.67
2017-09-20T11:45:52.493Z,8.40
2017-09-20T11:48:19.947Z,8.70
2017-09-20T11:50:47.392Z,8.87
2017-09-20T11:53:14.849Z,9.27
2017-09-20T11:55:42.288Z,9.20
2017-09-20T11:58:09.739Z,9.20
2017-09-20T12:00:37.992Z,9.47
2017-09-20T12:03:06.222Z,9.37
2017-09-20T12:05:33.679Z,8.33
2017-09-20T12:08:01.163Z,9.67
2017-09-20T12:10:28.604Z,10.03
2017-09-20T12:12:56.071Z,9.50
2017-09-20T12:15:23.543Z,9.00
2017-09-20T12:17:50.986Z,9.70
2017-09-20T12:20:18.439Z,8.00
2017-09-20T12:22:45.900Z,8.20
2017-09-20T12:25:13.351Z,7.60
2017-09-20T12:27:40.808Z,7.80
2017-09-20T12:30:08.284Z,7.17
2017-09-20T12:32:35.727Z,6.60
2017-09-20T12:35:03.177Z,6.60
2017-09-20T12:37:30.636Z,7.23
2017-09-20T12:39:58.090Z,21.27
2017-09-20T12:42:25.573Z,59.43
2017-09-20T12:44:53.787Z,16.33
2017-09-20T12:47:21.243Z,5.93
2017-09-20T12:49:48.695Z,5.50
2017-09-20T12:52:16.143Z,4.90
2017-09-20T12:54:43.592Z,5.20
2017-09-20T12:57:11.031Z,4.80
2017-09-20T12:59:39.252Z,4.90
2017-09-20T13:02:06.691Z,5.70
2017-09-20T13:04:34.165Z,5.60
2017-09-20T13:07:01.624Z,6.50
2017-09-20T13:09:29.077Z,6.70
2017-09-20T13:11:56.524Z,5.30
2017-09-20T13:14:23.975Z,6.77
2017-09-20T13:16:51.438Z,6.53
2017-09-20T13:19:18.888Z,7.50
2017-09-20T13:21:46.334Z,6.30
2017-09-20T13:24:13.790Z,5.90
2017-09-20T13:26:41.224Z,6.60
2017-09-20T13:29:09.435Z,6.90
2017-09-20T13:31:36.883Z,7.07
2017-09-20T13:34:04.339Z,7.30
2017-09-20T13:36:31.798Z,6.77
2017-09-20T13:38:59.257Z,6.87
2017-09-20T13:41:26.710Z,7.07
2017-09-20T13:43:54.186Z,7.63
2017-09-20T13:46:21.624Z,7.23
2017-09-20T13:48:49.080Z,7.17
2017-09-20T13:51:16.531Z,7.70
2017-09-20T13:53:44.105Z,6.90
2017-09-20T13:56:11.587Z,6.27
2017-09-20T13:58:39.039Z,7.00
2017-09-20T14:01:06.495Z,6.97
2017-09-20T14:03:33.956Z,7.67
2017-09-20T14:06:01.407Z,7.70
2017-09-20T14:08:28.854Z,7.70
2017-09-20T14:10:56.321Z,8.03
2017-09-20T14:13:23.779Z,7.40
2017-09-20T14:15:51.234Z,8.20
2017-09-20T14:18:18.687Z,8.67
2017-09-20T14:20:46.131Z,7.77
2017-09-20T14:23:13.595Z,8.80
2017-09-20T14:25:41.056Z,9.30
2017-09-20T14:28:08.503Z,9.40
2017-09-20T14:30:35.968Z,8.40
2017-09-20T14:33:03.428Z,9.43
2017-09-20T14:35:30.893Z,8.73
2017-09-20T14:37:58.340Z,10.63
2017-09-20T14:40:25.792Z,9.00
2017-09-20T14:42:53.247Z,8.83
2017-09-20T14:45:20.696Z,8.90
2017-09-20T14:47:48.150Z,8.97
2017-09-20T14:50:15.613Z,8.60
2017-09-20T14:52:44.081Z,8.30
2017-09-20T14:55:11.627Z,9.23
2017-09-20T14:57:39.085Z,9.37
2017-09-20T15:00:06.536Z,9.30
2017-09-20T15:02:33.991Z,8.90
2017-09-20T15:05:01.447Z,8.53
2017-09-20T15:07:28.906Z,9.23
2017-09-20T15:09:56.387Z,9.10
2017-09-20T15:12:23.835Z,8.70
2017-09-20T15:14:51.334Z,9.30
2017-09-20T15:17:18.803Z,8.47
2017-09-20T15:19:47.046Z,8.70
2017-09-20T15:22:14.510Z,9.07
2017-09-20T15:24:41.967Z,8.70
2017-09-20T15:27:09.408Z,7.70
2017-09-20T15:29:36.872Z,6.73
2017-09-20T15:32:04.324Z,7.27
2017-09-20T15:34:31.794Z,6.30
2017-09-20T15:36:59.235Z,6.07
2017-09-20T15:39:26.696Z,7.30
2017-09-20T15:41:54.158Z,6.83
2017-09-20T15:44:22.382Z,7.63
2017-09-20T15:46:49.832Z,7.33
2017-09-20T15:49:17.276Z,8.03
2017-09-20T15:51:44.721Z,8.10
2017-09-20T15:54:12.935Z,7.60
2017-09-20T15:56:40.384Z,7.87
2017-09-20T15:59:07.840Z,9.60
2017-09-20T16:01:35.297Z,8.50
2017-09-20T16:04:02.792Z,8.90
2017-09-20T16:06:30.243Z,9.20
2017-09-20T16:08:57.703Z,10.60
2017-09-20T16:11:25.178Z,10.50
2017-09-20T16:13:52.681Z,9.60
2017-09-20T16:16:20.135Z,9.17
2017-09-20T16:18:47.594Z,9.17
2017-09-20T16:21:15.043Z,8.83
2017-09-20T16:23:42.508Z,10.17
2017-09-20T16:26:09.964Z,9.43
2017-09-20T16:28:37.419Z,10.37
2017-09-20T16:31:04.881Z,9.27
2017-09-20T16:33:32.327Z,10.33
2017-09-20T16:35:59.782Z,10.37
2017-09-20T16:38:27.240Z,9.93
2017-09-20T16:40:54.694Z,9.93
2017-09-20T16:43:22.159Z,9.13
2017-09-20T16:45:49.608Z,9.47
2017-09-20T16:48:17.063Z,11.93
2017-09-20T16:50:44.523Z,11.60
2017-09-20T16:53:11.991Z,11.70
2017-09-20T16:55:39.455Z,12.60
2017-09-20T16:58:07.679Z,10.70
2017-09-20T17:00:35.899Z,12.47
2017-09-20T17:03:03.351Z,12.37
2017-09-20T17:05:30.811Z,12.03
2017-09-20T17:07:58.270Z,12.67
2017-09-20T17:10:25.737Z,13.40
2017-09-20T17:12:53.196Z,12.53
2017-09-20T17:15:20.672Z,12.23
2017-09-20T17:17:48.140Z,11.90
2017-09-20T17:20:17.022Z,11.97
2017-09-20T17:22:45.264Z,12.17
2017-09-20T17:25:12.768Z,12.60
2017-09-20T17:27:40.252Z,12.53
2017-09-20T17:30:07.736Z,12.90
2017-09-20T17:32:35.195Z,13.97
2017-09-20T17:35:02.665Z,13.40
2017-09-20T17:37:30.124Z,13.43
2017-09-20T17:39:57.660Z,12.90
2017-09-20T17:42:25.119Z,13.47
2017-09-20T17:44:52.575Z,13.43
2017-09-20T17:47:20.382Z,13.57
2017-09-20T17:49:48.604Z,13.30
2017-09-20T17:52:16.071Z,14.60
2017-09-20T17:54:43.515Z,13.67
2017-09-20T17:57:10.986Z,14.37
2017-09-20T17:59:38.444Z,13.90
2017-09-20T18:02:05.925Z,14.27
2017-09-20T18:04:34.148Z,13.40
2017-09-20T18:07:01.604Z,12.77
2017-09-20T18:09:29.058Z,13.13
2017-09-20T18:11:56.538Z,13.17
2017-09-20T18:14:23.983Z,12.70
2017-09-20T18:16:51.433Z,14.23
2017-09-20T18:19:19.850Z,13.00
2017-09-20T18:21:47.326Z,14.03
2017-09-20T18:24:15.550Z,12.53
2017-09-20T18:26:42.999Z,13.30
2017-09-20T18:29:10.451Z,13.57
2017-09-20T18:31:37.908Z,13.40
2017-09-20T18:34:05.436Z,16.10
2017-09-20T18:36:33.720Z,15.30
2017-09-20T18:39:01.173Z,13.67
2017-09-20T18:41:28.675Z,16.17
2017-09-20T18:43:56.135Z,17.07
2017-09-20T18:46:23.579Z,16.60
2017-09-20T18:48:51.097Z,16.43
2017-09-20T18:51:19.320Z,17.37
2017-09-20T18:53:46.838Z,18.57
2017-09-20T18:56:14.292Z,15.90
2017-09-20T18:58:41.767Z,17.60
2017-09-20T19:01:09.237Z,19.30
2017-09-20T19:03:36.684Z,19.03
2017-09-20T19:06:04.141Z,19.17
2017-09-20T19:08:31.798Z,17.40
2017-09-20T19:10:59.319Z,16.40
2017-09-20T19:13:27.534Z,15.30
2017-09-20T19:15:54.984Z,13.90
2017-09-20T19:18:23.208Z,14.77
2017-09-20T19:20:50.655Z,13.10
2017-09-20T19:23:18.109Z,12.63
2017-09-20T19:25:45.579Z,12.90
2017-09-20T19:28:13.036Z,13.10
2017-09-20T19:30:40.487Z,12.13
2017-09-20T19:33:07.944Z,12.10
2017-09-20T19:35:35.401Z,12.43
2017-09-20T19:38:02.842Z,11.73
2017-09-20T19:40:30.347Z,11.67
2017-09-20T19:42:57.795Z,12.00
2017-09-20T19:45:25.250Z,10.10
2017-09-20T19:47:52.732Z,9.40
2017-09-20T19:50:20.230Z,8.90
2017-09-20T19:52:47.679Z,8.93
2017-09-20T19:55:23.070Z,11.37
2017-09-20T19:57:50.511Z,10.20
2017-09-20T20:00:18.745Z,11.37
2017-09-20T20:02:46.267Z,12.30
2017-09-20T20:05:13.703Z,13.27
2017-09-20T20:07:41.978Z,12.60
2017-09-20T20:10:09.610Z,12.00
2017-09-20T20:12:37.271Z,11.20
2017-09-20T20:15:04.915Z,12.03
2017-09-20T20:17:32.562Z,11.37
2017-09-20T20:20:00.198Z,10.13
2017-09-20T20:22:28.210Z,9.90
2017-09-20T20:24:55.706Z,9.37
2017-09-20T20:27:23.984Z,11.07
2017-09-20T20:29:53.318Z,10.77
2017-09-20T20:32:21.412Z,10.87
2017-09-20T20:34:48.929Z,11.47
2017-09-20T20:37:16.559Z,9.77
2017-09-20T20:46:09.712Z,9.70
2017-09-20T20:54:35.876Z,11.27
2017-09-20T20:57:03.503Z,11.07
2017-09-20T21:08:45.164Z,12.70
2017-09-20T21:11:12.649Z,12.10
2017-09-20T21:13:40.340Z,12.23
2017-09-20T21:16:07.796Z,12.30
2017-09-20T21:18:35.655Z,12.07
2017-09-20T21:24:05.894Z,10.87
2017-09-20T21:26:33.382Z,11.10
2017-09-20T21:29:00.870Z,12.70
2017-09-20T21:31:28.349Z,13.23
2017-09-20T21:33:55.835Z,13.03
2017-09-20T21:36:23.258Z,13.30
2017-09-20T21:38:50.771Z,12.63
2017-09-20T21:41:18.265Z,13.03
2017-09-20T21:43:45.771Z,12.37
2017-09-20T21:46:13.212Z,11.97
2017-09-20T21:48:40.684Z,12.00
2017-09-20T21:51:08.179Z,11.00
2017-09-20T21:53:35.623Z,11.03
2017-09-20T21:56:03.079Z,11.67
2017-09-20T21:58:30.522Z,11.57
2017-09-20T22:00:58.091Z,13.53
2017-09-20T22:03:25.844Z,14.10
2017-09-20T22:05:53.639Z,12.67
2017-09-20T22:08:21.387Z,12.27
2017-09-20T22:11:07.432Z,12.73
2017-09-20T22:13:35.004Z,14.30
2017-09-20T22:16:14.268Z,14.20
2017-09-20T22:18:53.739Z,14.97
2017-09-20T22:21:33.082Z,15.30
2017-09-20T22:24:12.292Z,14.33
2017-09-20T22:26:44.233Z,14.60
2017-09-20T22:29:12.011Z,16.30
2017-09-20T22:31:54.305Z,15.17
2017-09-20T22:34:22.360Z,13.77
2017-09-20T22:36:50.116Z,14.33
2017-09-20T22:39:17.815Z,14.50
2017-09-20T22:41:45.672Z,14.70
2017-09-20T22:44:13.508Z,15.20
2017-09-20T22:46:41.385Z,14.40
2017-09-20T22:49:08.821Z,14.60
2017-09-20T22:51:36.272Z,15.07
2017-09-20T22:54:03.719Z,14.10
2017-09-20T22:56:31.177Z,14.10
2017-09-20T22:58:58.619Z,15.27
2017-09-20T23:01:26.504Z,15.20
2017-09-20T23:03:53.951Z,14.80
2017-09-20T23:06:21.392Z,15.07
2017-09-20T23:08:48.844Z,14.30
2017-09-20T23:14:19.794Z,14.43
2017-09-20T23:16:47.235Z,14.30
2017-09-20T23:19:14.683Z,15.03
2017-09-20T23:21:42.122Z,17.30
2017-09-20T23:24:09.572Z,15.50
2017-09-20T23:26:37.010Z,17.33
2017-09-20T23:29:04.497Z,15.53
2017-09-20T23:31:31.915Z,16.00
2017-09-20T23:33:59.371Z,16.07
2017-09-20T23:36:26.811Z,15.37
2017-09-20T23:38:54.257Z,15.20
2017-09-20T23:41:21.699Z,16.60
2017-09-20T23:43:49.142Z,16.70
2017-09-20T23:46:16.578Z,15.50
2017-09-20T23:48:44.048Z,16.80
2017-09-20T23:51:11.495Z,16.50
2017-09-20T23:53:38.930Z,15.57
2017-09-20T23:56:06.382Z,15.87
2017-09-20T23:58:33.828Z,15.13
